createdAt,value
2023-02-22T00:02:29.085Z,99.07
2023-02-22T00:05:02.332Z,98.80
2023-02-22T00:07:35.876Z,98.96
2023-02-22T00:10:13.460Z,99.82
2023-02-22T00:12:49.673Z,99.89
2023-02-22T00:15:27.412Z,100.00
2023-02-22T00:18:01.422Z,99.53
2023-02-22T00:20:34.742Z,99.66
2023-02-22T00:23:09.950Z,99.60
2023-02-22T00:25:43.210Z,99.33
2023-02-22T00:28:18.976Z,99.87
2023-02-22T00:30:55.032Z,100.00
2023-02-22T00:33:28.563Z,100.00
2023-02-22T00:36:01.766Z,100.00
2023-02-22T00:38:35.195Z,100.00
2023-02-22T00:41:08.411Z,100.00
2023-02-22T00:43:42.948Z,100.00
2023-02-22T00:46:16.445Z,100.00
2023-02-22T00:48:49.713Z,100.00
2023-02-22T00:51:23.729Z,100.00
2023-02-22T00:53:56.902Z,100.00
2023-02-22T00:56:30.221Z,100.00
2023-02-22T00:59:05.264Z,100.00
2023-02-22T01:01:38.590Z,100.00
2023-02-22T01:04:11.852Z,100.00
2023-02-22T01:06:45.183Z,100.00
2023-02-22T01:09:18.640Z,100.00
2023-02-22T01:11:56.321Z,100.00
2023-02-22T01:14:31.109Z,100.00
2023-02-22T01:17:04.857Z,100.00
2023-02-22T01:19:38.075Z,100.00
2023-02-22T01:22:11.282Z,100.00
2023-02-22T01:24:44.553Z,100.00
2023-02-22T01:27:19.231Z,100.00
2023-02-22T01:29:53.781Z,100.00
2023-02-22T01:32:27.137Z,100.00
2023-02-22T01:35:00.396Z,100.00
2023-02-22T01:37:34.106Z,100.00
2023-02-22T01:40:11.174Z,100.00
2023-02-22T01:42:45.739Z,100.00
2023-02-22T01:45:45.181Z,100.00
2023-02-22T01:48:24.920Z,100.00
2023-02-22T01:51:02.541Z,100.00
2023-02-22T01:53:41.355Z,100.00
2023-02-22T01:56:15.415Z,100.00
2023-02-22T01:58:52.109Z,100.00
2023-02-22T02:01:28.030Z,100.00
2023-02-22T02:04:07.349Z,100.00
2023-02-22T02:06:42.380Z,100.00
2023-02-22T02:09:22.894Z,100.00
2023-02-22T02:11:56.586Z,100.00
2023-02-22T02:14:31.952Z,100.00
2023-02-22T02:17:07.168Z,100.00
2023-02-22T02:19:55.449Z,100.00
2023-02-22T02:22:44.378Z,100.00
2023-02-22T02:26:04.122Z,100.00
2023-02-22T02:29:18.835Z,100.00
2023-02-22T02:32:30.952Z,100.00
2023-02-22T02:35:11.496Z,100.00
2023-02-22T02:37:54.181Z,100.00
2023-02-22T02:40:36.316Z,100.00
2023-02-22T02:43:18.799Z,100.00
2023-02-22T02:45:58.628Z,100.00
2023-02-22T02:48:35.971Z,100.00
2023-02-22T02:51:14.383Z,100.00
2023-02-22T02:53:51.396Z,100.00
2023-02-22T02:56:25.198Z,100.00
2023-02-22T02:58:58.692Z,100.00
2023-02-22T03:01:48.755Z,100.00
2023-02-22T03:04:38.457Z,100.00
2023-02-22T03:07:47.321Z,100.00
2023-02-22T03:10:47.170Z,100.00
2023-02-22T03:13:32.092Z,100.00
2023-02-22T03:16:17.479Z,100.00
2023-02-22T03:18:57.700Z,100.00
2023-02-22T03:21:36.471Z,100.00
2023-02-22T03:24:14.957Z,100.00
2023-02-22T03:26:54.604Z,100.00
2023-02-22T03:29:36.755Z,100.00
2023-02-22T03:32:17.045Z,100.00
2023-02-22T03:34:57.237Z,100.00
2023-02-22T03:37:37.626Z,100.00
2023-02-22T03:40:16.794Z,100.00
2023-02-22T03:42:55.022Z,100.00
2023-02-22T03:45:30.944Z,100.00
2023-02-22T03:48:10.488Z,100.00
2023-02-22T03:50:44.050Z,100.00
2023-02-22T03:53:19.961Z,100.00
2023-02-22T03:55:57.959Z,100.00
2023-02-22T03:58:34.597Z,100.00
2023-02-22T04:01:07.792Z,100.00
2023-02-22T04:03:42.262Z,100.00
2023-02-22T04:06:15.634Z,100.00
2023-02-22T04:08:50.271Z,100.00
2023-02-22T04:11:23.969Z,100.00
2023-02-22T04:13:58.520Z,100.00
2023-02-22T04:16:32.057Z,100.00
2023-02-22T04:19:06.316Z,100.00
2023-02-22T04:21:39.820Z,100.00
2023-02-22T04:24:15.037Z,100.00
2023-02-22T04:26:48.413Z,100.00
2023-02-22T04:29:21.813Z,100.00
2023-02-22T04:31:55.254Z,100.00
2023-02-22T04:34:28.572Z,100.00
2023-02-22T04:37:02.477Z,100.00
2023-02-22T04:39:37.183Z,100.00
2023-02-22T04:42:10.497Z,100.00
2023-02-22T04:44:43.735Z,100.00
2023-02-22T04:47:17.252Z,100.00
2023-02-22T04:49:50.606Z,100.00
2023-02-22T04:52:23.850Z,100.00
2023-02-22T04:54:58.493Z,100.00
2023-02-22T04:57:32.158Z,100.00
2023-02-22T05:00:07.219Z,100.00
2023-02-22T05:02:41.054Z,100.00
2023-02-22T05:05:16.136Z,100.00
2023-02-22T05:07:49.604Z,100.00
2023-02-22T05:10:24.905Z,100.00
2023-02-22T05:12:58.182Z,100.00
2023-02-22T05:15:31.406Z,100.00
2023-02-22T05:18:05.182Z,100.00
2023-02-22T05:20:38.698Z,100.00
2023-02-22T05:23:12.043Z,100.00
2023-02-22T05:25:46.953Z,100.00
2023-02-22T05:28:20.378Z,100.00
2023-02-22T05:30:58.168Z,100.00
2023-02-22T05:33:31.527Z,100.00
2023-02-22T05:36:05.038Z,100.00
2023-02-22T05:38:43.474Z,100.00
2023-02-22T05:41:18.648Z,100.00
2023-02-22T05:43:52.086Z,100.00
2023-02-22T05:46:25.475Z,100.00
2023-02-22T05:48:58.752Z,100.00
2023-02-22T05:51:32.145Z,100.00
2023-02-22T05:54:05.905Z,100.00
2023-02-22T05:56:40.701Z,100.00
2023-02-22T05:59:13.982Z,100.00
2023-02-22T06:01:47.247Z,100.00
2023-02-22T06:04:20.583Z,100.00
2023-02-22T06:06:53.834Z,100.00
2023-02-22T06:09:27.224Z,100.00
2023-02-22T06:12:01.837Z,100.00
2023-02-22T06:14:35.196Z,100.00
2023-02-22T06:17:08.491Z,100.00
2023-02-22T06:19:41.751Z,100.00
2023-02-22T06:22:19.651Z,100.00
2023-02-22T06:24:54.948Z,100.00
2023-02-22T06:27:32.490Z,100.00
2023-02-22T06:30:07.824Z,100.00
2023-02-22T06:32:41.208Z,100.00
2023-02-22T06:35:15.740Z,100.00
2023-02-22T06:37:49.626Z,100.00
2023-02-22T06:40:23.122Z,100.00
2023-02-22T06:42:58.306Z,100.00
2023-02-22T06:45:32.402Z,100.00
2023-02-22T06:48:05.840Z,100.00
2023-02-22T06:50:39.167Z,100.00
2023-02-22T06:53:12.579Z,100.00
2023-02-22T06:55:45.959Z,100.00
2023-02-22T06:58:20.683Z,100.00
2023-02-22T07:00:54.390Z,100.00
2023-02-22T07:03:27.704Z,99.73
2023-02-22T07:06:01.111Z,99.59
2023-02-22T07:08:34.668Z,99.32
2023-02-22T07:11:07.941Z,99.90
2023-02-22T07:13:42.784Z,100.00
2023-02-22T07:16:16.143Z,100.00
2023-02-22T07:18:49.892Z,99.37
2023-02-22T07:21:23.200Z,98.56
2023-02-22T07:23:59.072Z,97.57
2023-02-22T07:26:32.566Z,97.92
2023-02-22T07:29:07.459Z,98.31
2023-02-22T07:31:41.166Z,97.95
2023-02-22T07:34:14.495Z,97.38
2023-02-22T07:36:49.746Z,97.17
2023-02-22T07:39:23.095Z,97.11
2023-02-22T07:41:56.422Z,97.91
2023-02-22T07:44:31.122Z,95.82
2023-02-22T07:47:04.383Z,94.56
2023-02-22T07:49:38.107Z,93.74
2023-02-22T07:52:12.794Z,92.89
2023-02-22T07:54:48.082Z,92.64
2023-02-22T07:57:21.435Z,91.50
2023-02-22T07:59:56.196Z,90.29
2023-02-22T08:02:29.693Z,89.72
2023-02-22T08:05:02.937Z,89.02
2023-02-22T08:07:36.216Z,88.71
2023-02-22T08:10:11.966Z,88.19
2023-02-22T08:12:45.529Z,87.24
2023-02-22T08:15:23.676Z,86.53
2023-02-22T08:17:57.674Z,85.83
2023-02-22T08:20:31.654Z,86.47
2023-02-22T08:23:06.113Z,85.18
2023-02-22T08:25:39.474Z,84.57
2023-02-22T08:28:15.800Z,84.68
2023-02-22T08:30:50.789Z,84.39
2023-02-22T08:33:38.161Z,84.83
2023-02-22T08:36:11.573Z,82.71
2023-02-22T08:38:44.789Z,83.70
2023-02-22T08:41:18.463Z,82.14
2023-02-22T08:43:51.770Z,81.68
2023-02-22T08:46:26.310Z,80.94
2023-02-22T08:48:59.481Z,81.19
2023-02-22T08:51:36.361Z,80.01
2023-02-22T08:54:09.705Z,78.26
2023-02-22T08:56:42.896Z,77.63
2023-02-22T08:59:16.458Z,76.27
2023-02-22T09:01:51.239Z,76.64
2023-02-22T09:04:24.440Z,75.72
2023-02-22T09:06:58.063Z,76.07
2023-02-22T09:09:31.299Z,75.03
2023-02-22T09:12:05.197Z,75.61
2023-02-22T09:14:38.877Z,75.61
2023-02-22T09:17:13.385Z,75.60
2023-02-22T09:19:46.530Z,75.00
2023-02-22T09:22:19.747Z,73.36
2023-02-22T09:24:54.312Z,73.60
2023-02-22T09:27:28.790Z,73.15
2023-02-22T09:30:02.214Z,72.83
2023-02-22T09:32:38.503Z,72.06
2023-02-22T09:35:13.032Z,71.21
2023-02-22T09:37:46.590Z,71.32
2023-02-22T09:40:25.127Z,70.36
2023-02-22T09:43:14.648Z,68.87
2023-02-22T09:46:07.043Z,70.03
2023-02-22T09:48:58.250Z,68.87
2023-02-22T09:51:40.257Z,68.98
2023-02-22T09:54:23.180Z,67.95
2023-02-22T09:56:59.470Z,67.58
2023-02-22T09:59:40.860Z,66.29
2023-02-22T10:02:26.534Z,65.99
2023-02-22T10:05:09.254Z,67.35
2023-02-22T10:07:49.672Z,65.42
2023-02-22T10:10:26.554Z,65.86
2023-02-22T10:13:09.408Z,64.38
2023-02-22T10:15:52.644Z,64.25
2023-02-22T10:19:11.110Z,63.57
2023-02-22T10:22:19.964Z,64.75
2023-02-22T10:25:01.366Z,64.41
2023-02-22T10:27:38.991Z,64.47
2023-02-22T10:30:25.407Z,63.32
2023-02-22T10:33:06.666Z,62.93
2023-02-22T10:35:41.983Z,61.59
2023-02-22T10:38:22.224Z,61.27
2023-02-22T10:41:00.460Z,60.49
2023-02-22T10:43:34.349Z,59.28
2023-02-22T10:46:12.619Z,58.43
2023-02-22T10:48:49.284Z,59.06
2023-02-22T10:51:22.661Z,57.66
2023-02-22T10:54:19.886Z,57.78
2023-02-22T10:56:56.250Z,57.63
2023-02-22T10:59:34.239Z,55.85
2023-02-22T11:02:20.061Z,55.32
2023-02-22T11:04:55.450Z,53.14
2023-02-22T11:07:32.014Z,53.26
2023-02-22T11:10:09.644Z,52.22
2023-02-22T11:12:44.693Z,51.80
2023-02-22T11:15:29.572Z,51.34
2023-02-22T11:18:02.864Z,51.88
2023-02-22T11:20:40.880Z,51.32
2023-02-22T11:23:14.703Z,50.92
2023-02-22T11:25:52.052Z,50.64
2023-02-22T11:28:32.914Z,51.09
2023-02-22T11:31:17.582Z,52.31
2023-02-22T11:36:37.536Z,53.02
2023-02-22T11:39:24.745Z,53.71
2023-02-22T11:41:59.941Z,53.03
2023-02-22T11:44:34.306Z,52.42
2023-02-22T11:47:13.886Z,52.41
2023-02-22T11:49:47.528Z,52.41
2023-02-22T11:52:28.308Z,52.13
2023-02-22T11:55:36.486Z,52.98
2023-02-22T11:58:39.157Z,50.93
2023-02-22T12:01:22.971Z,50.88
2023-02-22T12:04:42.046Z,50.34
2023-02-22T12:07:43.222Z,50.64
2023-02-22T12:10:28.267Z,50.45
2023-02-22T12:13:23.559Z,49.83
2023-02-22T12:16:10.701Z,50.12
2023-02-22T12:19:09.313Z,49.28
2023-02-22T12:21:46.368Z,47.56
2023-02-22T12:24:23.798Z,47.62
2023-02-22T12:27:04.076Z,47.78
2023-02-22T12:29:47.159Z,47.73
2023-02-22T12:32:35.133Z,47.32
2023-02-22T12:35:16.828Z,46.94
2023-02-22T12:38:00.185Z,47.62
2023-02-22T12:40:40.549Z,47.69
2023-02-22T12:43:22.627Z,49.36
2023-02-22T12:46:04.384Z,49.31
2023-02-22T12:48:45.974Z,48.51
2023-02-22T12:51:28.743Z,48.42
2023-02-22T12:54:12.998Z,48.52
2023-02-22T12:56:54.910Z,47.61
2023-02-22T12:59:33.928Z,47.84
2023-02-22T13:02:18.623Z,48.26
2023-02-22T13:04:51.941Z,47.41
2023-02-22T13:07:40.879Z,47.94
2023-02-22T13:10:57.330Z,48.48
2023-02-22T13:13:39.600Z,49.43
2023-02-22T13:16:28.598Z,49.32
2023-02-22T13:19:09.963Z,50.14
2023-02-22T13:21:49.198Z,50.58
2023-02-22T13:24:27.535Z,51.35
2023-02-22T13:27:05.563Z,50.82
2023-02-22T13:29:41.707Z,50.96
2023-02-22T13:32:31.049Z,50.63
2023-02-22T13:35:31.733Z,50.18
2023-02-22T13:38:30.927Z,49.76
2023-02-22T13:41:31.161Z,50.03
2023-02-22T13:44:37.699Z,50.63
2023-02-22T13:48:05.959Z,50.86
2023-02-22T13:51:16.166Z,51.08
2023-02-22T13:53:56.058Z,51.20
2023-02-22T13:56:30.474Z,50.71
2023-02-22T13:59:06.092Z,50.10
2023-02-22T14:01:45.746Z,50.74
2023-02-22T14:04:36.492Z,50.23
2023-02-22T14:07:59.741Z,50.02
2023-02-22T14:10:50.057Z,50.09
2023-02-22T14:13:26.684Z,49.73
2023-02-22T14:16:24.385Z,49.76
2023-02-22T14:19:06.611Z,49.70
2023-02-22T14:22:02.174Z,49.82
2023-02-22T14:24:46.082Z,50.62
2023-02-22T14:27:19.791Z,50.31
2023-02-22T14:29:55.975Z,50.01
2023-02-22T14:32:33.820Z,50.26
2023-02-22T14:35:25.475Z,50.70
2023-02-22T14:38:03.088Z,50.81
2023-02-22T14:40:39.610Z,51.25
2023-02-22T14:43:19.926Z,51.19
2023-02-22T14:45:56.397Z,51.59
2023-02-22T14:48:39.592Z,50.93
2023-02-22T14:51:23.191Z,51.59
2023-02-22T14:54:03.866Z,51.63
2023-02-22T14:56:44.364Z,51.30
2023-02-22T14:59:24.183Z,50.69
2023-02-22T15:02:11.672Z,51.27
2023-02-22T15:04:52.502Z,51.78
2023-02-22T15:07:29.558Z,51.73
2023-02-22T15:10:20.963Z,51.57
2023-02-22T15:13:09.915Z,51.78
2023-02-22T15:15:48.254Z,52.54
2023-02-22T15:18:29.431Z,52.66
2023-02-22T15:21:08.407Z,53.24
2023-02-22T15:23:44.732Z,53.09
2023-02-22T15:26:20.590Z,54.14
2023-02-22T15:28:59.895Z,54.09
2023-02-22T15:31:36.529Z,54.79
2023-02-22T15:34:24.378Z,54.48
2023-02-22T15:37:06.504Z,54.99
2023-02-22T15:39:43.998Z,55.16
2023-02-22T15:42:21.094Z,55.08
2023-02-22T15:44:56.224Z,55.09
2023-02-22T15:47:32.130Z,55.05
2023-02-22T15:50:25.739Z,55.27
2023-02-22T15:53:02.646Z,56.41
2023-02-22T15:55:38.434Z,56.74
2023-02-22T15:58:22.353Z,56.87
2023-02-22T16:01:03.197Z,57.46
2023-02-22T16:03:45.053Z,58.14
2023-02-22T16:06:33.580Z,58.86
2023-02-22T16:09:11.068Z,59.01
2023-02-22T16:11:47.148Z,59.86
2023-02-22T16:14:30.294Z,60.49
2023-02-22T16:17:31.890Z,60.57
2023-02-22T16:20:35.427Z,61.15
2023-02-22T16:23:26.196Z,61.58
2023-02-22T16:26:21.632Z,62.17
2023-02-22T16:28:56.846Z,62.08
2023-02-22T16:31:33.890Z,62.93
2023-02-22T16:34:10.980Z,62.84
2023-02-22T16:36:46.965Z,63.17
2023-02-22T16:39:27.254Z,62.96
2023-02-22T16:42:03.652Z,62.88
2023-02-22T16:44:36.888Z,62.94
2023-02-22T16:47:13.574Z,64.27
2023-02-22T16:49:53.063Z,64.50
2023-02-22T16:52:28.140Z,64.61
2023-02-22T16:55:02.028Z,64.86
2023-02-22T16:57:35.258Z,65.98
2023-02-22T17:00:15.599Z,65.45
2023-02-22T17:02:49.288Z,65.83
2023-02-22T17:05:24.079Z,65.81
2023-02-22T17:07:57.694Z,65.82
2023-02-22T17:10:31.158Z,66.95
2023-02-22T17:13:21.211Z,67.99
2023-02-22T17:15:56.578Z,67.25
2023-02-22T17:18:34.112Z,68.06
2023-02-22T17:21:10.273Z,67.48
2023-02-22T17:23:45.938Z,68.30
2023-02-22T17:26:19.774Z,69.08
2023-02-22T17:28:53.094Z,69.25
2023-02-22T17:31:31.043Z,68.38
2023-02-22T17:34:06.453Z,70.08
2023-02-22T17:36:42.129Z,69.61
2023-02-22T17:39:15.340Z,69.92
2023-02-22T17:41:55.125Z,70.33
2023-02-22T17:44:30.196Z,70.40
2023-02-22T17:47:03.462Z,71.04
2023-02-22T17:49:36.730Z,71.38
2023-02-22T17:52:15.790Z,72.13
2023-02-22T17:54:49.091Z,72.39
2023-02-22T17:57:22.640Z,72.72
2023-02-22T17:59:56.049Z,73.59
2023-02-22T18:02:29.385Z,73.84
2023-02-22T18:05:03.087Z,74.32
2023-02-22T18:07:37.698Z,74.48
2023-02-22T18:10:12.180Z,74.77
2023-02-22T18:12:45.394Z,75.36
2023-02-22T18:15:18.782Z,76.60
2023-02-22T18:17:51.998Z,76.43
2023-02-22T18:20:31.232Z,77.05
2023-02-22T18:23:08.168Z,78.49
2023-02-22T18:25:42.367Z,78.42
2023-02-22T18:28:16.467Z,78.08
2023-02-22T18:30:50.448Z,80.02
2023-02-22T18:33:23.895Z,79.90
2023-02-22T18:35:59.165Z,79.40
2023-02-22T18:38:33.796Z,79.62
2023-02-22T18:41:09.984Z,80.21
2023-02-22T18:43:43.709Z,80.36
2023-02-22T18:46:20.381Z,81.25
2023-02-22T18:48:56.846Z,81.53
2023-02-22T18:51:30.654Z,81.46
2023-02-22T18:54:05.380Z,82.32
2023-02-22T18:56:40.224Z,82.01
2023-02-22T18:59:14.424Z,81.72
2023-02-22T19:01:49.172Z,82.33
2023-02-22T19:04:22.552Z,82.40
2023-02-22T19:06:57.623Z,82.03
2023-02-22T19:09:33.032Z,82.74
2023-02-22T19:12:07.359Z,82.86
2023-02-22T19:14:42.421Z,83.62
2023-02-22T19:17:16.715Z,83.46
2023-02-22T19:19:50.030Z,83.81
2023-02-22T19:22:26.296Z,86.22
2023-02-22T19:25:01.422Z,85.97
2023-02-22T19:27:35.657Z,85.97
2023-02-22T19:32:47.470Z,86.81
2023-02-22T19:35:27.194Z,86.17
2023-02-22T19:38:00.471Z,86.05
2023-02-22T19:40:35.078Z,86.17
2023-02-22T19:43:08.451Z,86.76
2023-02-22T19:45:41.896Z,87.29
2023-02-22T19:48:15.380Z,87.31
2023-02-22T19:50:50.063Z,87.92
2023-02-22T19:53:23.343Z,88.18
2023-02-22T19:55:58.067Z,87.96
2023-02-22T19:58:36.679Z,87.29
2023-02-22T20:01:14.641Z,87.55
2023-02-22T20:03:52.248Z,87.73
2023-02-22T20:06:29.203Z,87.54
2023-02-22T20:09:03.615Z,87.95
2023-02-22T20:11:38.401Z,88.07
2023-02-22T20:14:17.902Z,88.40
2023-02-22T20:16:51.493Z,88.53
2023-02-22T20:19:26.922Z,89.33
2023-02-22T20:22:00.377Z,89.25
2023-02-22T20:24:34.101Z,89.50
2023-02-22T20:27:09.232Z,89.07
2023-02-22T20:29:42.507Z,88.95
2023-02-22T20:32:18.802Z,89.09
2023-02-22T20:34:52.269Z,89.38
2023-02-22T20:37:25.555Z,89.14
2023-02-22T20:39:59.910Z,89.08
2023-02-22T20:42:34.530Z,88.92
2023-02-22T20:45:11.593Z,89.05
2023-02-22T20:47:45.128Z,89.20
2023-02-22T20:50:18.791Z,89.81
2023-02-22T20:52:52.033Z,89.10
2023-02-22T20:55:25.884Z,89.61
2023-02-22T20:58:00.971Z,90.07
2023-02-22T21:00:35.744Z,90.50
2023-02-22T21:03:09.502Z,90.62
2023-02-22T21:05:44.767Z,90.52
2023-02-22T21:08:18.135Z,90.86
2023-02-22T21:10:51.628Z,91.11
2023-02-22T21:13:26.868Z,90.94
2023-02-22T21:16:00.404Z,90.79
2023-02-22T21:18:34.008Z,91.47
2023-02-22T21:21:10.464Z,91.60
2023-02-22T21:23:49.701Z,91.71
2023-02-22T21:26:27.179Z,91.79
2023-02-22T21:29:05.804Z,91.66
2023-02-22T21:31:39.082Z,91.20
2023-02-22T21:34:17.539Z,91.00
2023-02-22T21:36:52.564Z,91.65
2023-02-22T21:39:28.662Z,92.08
2023-02-22T21:42:02.197Z,92.62
2023-02-22T21:44:37.234Z,92.83
2023-02-22T21:47:10.546Z,92.91
2023-02-22T21:49:43.920Z,92.99
2023-02-22T21:52:18.428Z,92.32
2023-02-22T21:54:51.700Z,92.60
2023-02-22T21:57:26.249Z,91.57
2023-02-22T22:00:00.931Z,92.86
2023-02-22T22:02:34.337Z,92.79
2023-02-22T22:05:09.212Z,92.46
2023-02-22T22:07:44.677Z,93.43
2023-02-22T22:10:24.566Z,93.77
2023-02-22T22:12:59.530Z,93.81
2023-02-22T22:15:36.962Z,93.44
2023-02-22T22:18:11.488Z,93.90
2023-02-22T22:20:45.155Z,93.99
2023-02-22T22:23:18.340Z,94.22
2023-02-22T22:25:51.565Z,94.33
2023-02-22T22:28:27.040Z,94.71
2023-02-22T22:31:02.554Z,94.88
2023-02-22T22:33:37.775Z,94.74
2023-02-22T22:36:14.313Z,94.63
2023-02-22T22:38:48.137Z,94.55
2023-02-22T22:41:22.573Z,93.97
2023-02-22T22:43:56.194Z,94.38
2023-02-22T22:46:31.668Z,94.28
2023-02-22T22:49:04.929Z,94.18
2023-02-22T22:51:40.969Z,94.18
2023-02-22T22:54:14.563Z,94.66
2023-02-22T22:56:47.857Z,94.94
2023-02-22T22:59:21.718Z,95.19
2023-02-22T23:01:56.722Z,95.37
2023-02-22T23:04:30.487Z,95.29
2023-02-22T23:07:05.267Z,95.46
2023-02-22T23:09:39.711Z,95.04
2023-02-22T23:12:16.929Z,94.77
2023-02-22T23:14:52.116Z,94.67
2023-02-22T23:17:31.454Z,95.51
2023-02-22T23:20:11.293Z,95.65
2023-02-22T23:22:47.312Z,96.05
2023-02-22T23:25:21.639Z,95.54
2023-02-22T23:27:55.796Z,95.99
2023-02-22T23:30:30.640Z,95.62
2023-02-22T23:33:05.325Z,96.13
2023-02-22T23:35:38.678Z,96.71
2023-02-22T23:38:11.872Z,96.08
2023-02-22T23:40:46.121Z,95.66
2023-02-22T23:43:21.924Z,96.44
2023-02-22T23:45:57.140Z,96.55
2023-02-22T23:48:32.821Z,96.87
2023-02-22T23:51:11.210Z,95.90
2023-02-22T23:53:46.110Z,96.07
2023-02-22T23:56:22.043Z,96.38
2023-02-22T23:58:57.455Z,96.50
